createdAt,value
2022-09-12T00:00:11.849Z,53.17
2022-09-12T00:01:12.157Z,57.52
2022-09-12T00:02:12.476Z,49.31
2022-09-12T00:03:12.792Z,50.11
2022-09-12T00:04:13.125Z,49.15
2022-09-12T00:05:13.432Z,49.15
2022-09-12T00:06:13.739Z,50.60
2022-09-12T00:07:14.054Z,71.54
2022-09-12T00:08:14.349Z,50.11
2022-09-12T00:09:14.703Z,49.47
2022-09-12T00:10:14.997Z,49.31
2022-09-12T00:11:15.323Z,51.72
2022-09-12T00:12:15.630Z,48.50
2022-09-12T00:13:16.327Z,47.53
2022-09-12T00:14:16.181Z,53.01
2022-09-12T00:15:16.587Z,49.63
2022-09-12T00:16:16.850Z,50.60
2022-09-12T00:17:17.011Z,48.50
2022-09-12T00:18:17.532Z,51.40
2022-09-12T00:19:17.647Z,51.72
2022-09-12T00:20:17.978Z,47.86
2022-09-12T00:21:18.370Z,48.18
2022-09-12T00:22:18.561Z,48.34
2022-09-12T00:23:18.888Z,48.18
2022-09-12T00:24:19.215Z,49.79
2022-09-12T00:25:19.526Z,48.02
2022-09-12T00:26:19.841Z,47.86
2022-09-12T00:27:20.142Z,50.11
2022-09-12T00:28:20.468Z,47.53
2022-09-12T00:29:20.782Z,49.47
2022-09-12T00:30:21.074Z,48.50
2022-09-12T00:31:21.427Z,47.53
2022-09-12T00:32:21.735Z,51.88
2022-09-12T00:33:22.017Z,49.63
2022-09-12T00:34:22.372Z,54.14
2022-09-12T00:35:22.646Z,48.18
2022-09-12T00:36:22.957Z,48.50
2022-09-12T00:37:23.281Z,50.92
2022-09-12T00:38:23.621Z,49.79
2022-09-12T00:39:23.958Z,49.79
2022-09-12T00:40:24.269Z,47.86
2022-09-12T00:41:24.591Z,47.37
2022-09-12T00:42:24.859Z,51.56
2022-09-12T00:43:25.188Z,62.20
2022-09-12T00:44:25.541Z,48.66
2022-09-12T00:45:25.844Z,47.86
2022-09-12T00:46:26.155Z,48.34
2022-09-12T00:47:26.475Z,47.53
2022-09-12T00:48:26.757Z,48.82
2022-09-12T00:49:27.131Z,48.82
2022-09-12T00:50:27.390Z,47.70
2022-09-12T00:51:27.754Z,48.34
2022-09-12T00:52:28.083Z,48.18
2022-09-12T00:53:28.381Z,53.82
2022-09-12T00:54:28.833Z,51.08
2022-09-12T00:55:29.066Z,48.66
2022-09-12T00:56:29.262Z,48.98
2022-09-12T00:57:29.585Z,48.02
2022-09-12T00:58:30.289Z,51.88
2022-09-12T00:59:30.189Z,49.79
2022-09-12T01:00:30.537Z,48.02
2022-09-12T01:01:32.745Z,48.66
2022-09-12T01:02:30.993Z,48.18
2022-09-12T01:03:31.310Z,49.31
2022-09-12T01:04:31.656Z,48.66
2022-09-12T01:05:31.944Z,48.98
2022-09-12T01:06:32.257Z,51.88
2022-09-12T01:07:35.789Z,51.56
2022-09-12T01:08:33.918Z,53.33
2022-09-12T01:09:33.120Z,48.66
2022-09-12T01:10:33.400Z,50.76
2022-09-12T01:11:33.735Z,48.18
2022-09-12T01:12:34.069Z,48.82
2022-09-12T01:13:34.422Z,63.49
2022-09-12T01:14:34.612Z,47.70
2022-09-12T01:15:34.904Z,53.17
2022-09-12T01:16:36.073Z,48.66
2022-09-12T01:17:35.585Z,50.60
2022-09-12T01:18:35.864Z,47.53
2022-09-12T01:19:36.209Z,56.24
2022-09-12T01:20:36.547Z,48.66
2022-09-12T01:21:36.861Z,47.53
2022-09-12T01:22:37.219Z,55.75
2022-09-12T01:23:37.461Z,51.56
2022-09-12T01:24:37.899Z,48.66
2022-09-12T01:25:38.031Z,49.95
2022-09-12T01:26:38.397Z,60.75
2022-09-12T01:27:38.701Z,47.86
2022-09-12T01:28:39.088Z,49.15
2022-09-12T01:29:39.329Z,49.95
2022-09-12T01:30:39.639Z,48.02
2022-09-12T01:31:39.970Z,48.82
2022-09-12T01:32:40.282Z,47.86
2022-09-12T01:33:40.592Z,49.31
2022-09-12T01:34:40.930Z,54.46
2022-09-12T01:35:41.248Z,48.18
2022-09-12T01:36:41.608Z,51.40
2022-09-12T01:37:41.821Z,48.50
2022-09-12T01:38:42.498Z,49.79
2022-09-12T01:39:42.389Z,50.43
2022-09-12T01:40:42.668Z,48.18
2022-09-12T01:41:43.030Z,49.79
2022-09-12T01:42:43.322Z,48.34
2022-09-12T01:43:43.681Z,48.82
2022-09-12T01:44:43.828Z,54.30
2022-09-12T01:45:44.187Z,48.66
2022-09-12T01:46:44.494Z,47.70
2022-09-12T01:47:44.801Z,50.76
2022-09-12T01:48:45.309Z,47.53
2022-09-12T01:49:45.470Z,48.34
2022-09-12T01:50:45.770Z,48.02
2022-09-12T01:51:46.172Z,47.70
2022-09-12T01:52:46.358Z,48.50
2022-09-12T01:53:46.670Z,49.63
2022-09-12T01:54:46.998Z,48.02
2022-09-12T01:55:47.271Z,48.18
2022-09-12T01:56:47.615Z,47.86
2022-09-12T01:57:47.918Z,48.18
2022-09-12T01:58:48.274Z,49.15
2022-09-12T01:59:48.467Z,49.47
2022-09-12T02:00:48.883Z,49.95
2022-09-12T02:01:49.144Z,48.82
2022-09-12T02:02:49.317Z,49.47
2022-09-12T02:03:49.616Z,48.18
2022-09-12T02:04:49.895Z,48.18
2022-09-12T02:05:50.246Z,48.50
2022-09-12T02:06:50.548Z,57.69
2022-09-12T02:07:50.981Z,48.66
2022-09-12T02:08:51.146Z,48.02
2022-09-12T02:09:51.467Z,51.08
2022-09-12T02:10:51.788Z,50.11
2022-09-12T02:11:52.181Z,54.14
2022-09-12T02:12:52.342Z,60.91
2022-09-12T02:13:52.661Z,49.79
2022-09-12T02:14:52.880Z,47.53
2022-09-12T02:15:53.293Z,59.94
2022-09-12T02:16:53.550Z,71.38
2022-09-12T02:17:53.851Z,48.98
2022-09-12T02:18:54.210Z,53.17
2022-09-12T02:19:54.552Z,48.98
2022-09-12T02:20:54.856Z,48.34
2022-09-12T02:21:55.157Z,48.02
2022-09-12T02:22:55.380Z,48.66
2022-09-12T02:23:55.690Z,48.02
2022-09-12T02:24:56.008Z,48.50
2022-09-12T02:25:56.321Z,48.02
2022-09-12T02:26:56.553Z,48.50
2022-09-12T02:27:56.827Z,48.98
2022-09-12T02:28:57.146Z,48.02
2022-09-12T02:29:57.450Z,48.34
2022-09-12T02:30:57.841Z,49.31
2022-09-12T02:31:58.011Z,53.82
2022-09-12T02:32:58.359Z,49.79
2022-09-12T02:33:58.703Z,48.34
2022-09-12T02:34:58.974Z,48.82
2022-09-12T02:35:59.331Z,49.79
2022-09-12T02:36:59.666Z,50.11
2022-09-12T02:37:59.879Z,48.66
2022-09-12T02:39:00.188Z,48.02
2022-09-12T02:40:00.534Z,48.66
2022-09-12T02:41:00.751Z,48.66
2022-09-12T02:42:01.053Z,49.95
2022-09-12T02:43:01.429Z,47.70
2022-09-12T02:44:01.608Z,50.92
2022-09-12T02:45:01.868Z,49.63
2022-09-12T02:46:02.241Z,49.47
2022-09-12T02:47:02.536Z,51.56
2022-09-12T02:48:02.892Z,56.40
2022-09-12T02:49:03.209Z,48.82
2022-09-12T02:50:04.352Z,48.50
2022-09-12T02:51:03.753Z,56.24
2022-09-12T02:52:04.940Z,52.05
2022-09-12T02:53:04.476Z,52.53
2022-09-12T02:54:04.814Z,51.08
2022-09-12T02:55:05.037Z,49.47
2022-09-12T02:56:05.302Z,56.07
2022-09-12T02:57:05.515Z,51.08
2022-09-12T02:58:05.784Z,53.98
2022-09-12T02:59:06.978Z,51.56
2022-09-12T03:00:06.457Z,49.79
2022-09-12T03:01:06.842Z,49.15
2022-09-12T03:02:07.066Z,68.80
2022-09-12T03:03:07.311Z,57.85
2022-09-12T03:04:07.719Z,52.85
2022-09-12T03:05:07.958Z,51.56
2022-09-12T03:06:08.357Z,49.95
2022-09-12T03:07:08.548Z,51.08
2022-09-12T03:08:08.864Z,52.85
2022-09-12T03:09:09.202Z,52.53
2022-09-12T03:10:09.387Z,51.40
2022-09-12T03:11:09.681Z,53.82
2022-09-12T03:12:10.837Z,57.36
2022-09-12T03:13:10.265Z,50.76
2022-09-12T03:14:10.580Z,54.79
2022-09-12T03:15:10.834Z,69.45
2022-09-12T03:16:11.271Z,66.23
2022-09-12T03:17:11.519Z,51.08
2022-09-12T03:18:11.807Z,56.24
2022-09-12T03:19:12.163Z,49.95
2022-09-12T03:20:12.487Z,51.72
2022-09-12T03:21:12.819Z,51.08
2022-09-12T03:22:13.135Z,56.88
2022-09-12T03:23:13.421Z,56.40
2022-09-12T03:24:13.794Z,51.88
2022-09-12T03:25:14.092Z,50.43
2022-09-12T03:26:14.386Z,56.72
2022-09-12T03:27:14.673Z,50.43
2022-09-12T03:28:14.984Z,58.97
2022-09-12T03:29:15.219Z,51.56
2022-09-12T03:30:15.551Z,55.11
2022-09-12T03:31:15.877Z,59.78
2022-09-12T03:32:16.140Z,56.40
2022-09-12T03:33:16.460Z,53.98
2022-09-12T03:34:16.788Z,53.01
2022-09-12T03:35:20.888Z,54.79
2022-09-12T03:36:18.340Z,65.10
2022-09-12T03:37:17.677Z,51.24
2022-09-12T03:38:17.988Z,53.82
2022-09-12T03:39:18.262Z,73.96
2022-09-12T03:40:18.664Z,64.61
2022-09-12T03:41:18.854Z,58.17
2022-09-12T03:42:19.122Z,69.61
2022-09-12T03:43:19.383Z,63.49
2022-09-12T03:44:19.752Z,75.89
2022-09-12T03:45:20.032Z,63.81
2022-09-12T03:46:20.329Z,61.39
2022-09-12T03:47:20.578Z,60.10
2022-09-12T03:48:20.820Z,57.04
2022-09-12T03:49:21.149Z,50.43
2022-09-12T03:50:21.402Z,50.43
2022-09-12T03:51:21.731Z,60.10
2022-09-12T03:52:22.046Z,55.59
2022-09-12T03:53:22.373Z,55.59
2022-09-12T03:54:22.684Z,53.82
2022-09-12T03:55:22.952Z,55.59
2022-09-12T03:56:23.259Z,56.56
2022-09-12T03:57:23.540Z,73.64
2022-09-12T03:58:23.835Z,58.33
2022-09-12T03:59:24.315Z,59.78
2022-09-12T04:00:24.447Z,68.96
2022-09-12T04:01:24.714Z,59.62
2022-09-12T04:02:25.039Z,55.11
2022-09-12T04:03:25.325Z,53.66
2022-09-12T04:04:25.738Z,61.87
2022-09-12T04:05:25.969Z,62.84
2022-09-12T04:06:26.307Z,53.50
2022-09-12T04:07:26.584Z,51.72
2022-09-12T04:08:26.877Z,57.36
2022-09-12T04:09:27.160Z,59.30
2022-09-12T04:10:27.408Z,67.03
2022-09-12T04:11:27.768Z,61.55
2022-09-12T04:12:28.047Z,63.81
2022-09-12T04:13:28.332Z,61.07
2022-09-12T04:14:28.634Z,58.97
2022-09-12T04:15:28.952Z,55.75
2022-09-12T04:16:29.283Z,74.28
2022-09-12T04:17:29.581Z,55.43
2022-09-12T04:18:29.887Z,69.61
2022-09-12T04:19:30.299Z,53.17
2022-09-12T04:20:30.600Z,60.26
2022-09-12T04:21:30.914Z,56.40
2022-09-12T04:22:31.174Z,56.56
2022-09-12T04:23:31.505Z,60.75
2022-09-12T04:24:31.782Z,59.14
2022-09-12T04:25:32.099Z,55.75
2022-09-12T04:26:32.409Z,56.40
2022-09-12T04:27:32.635Z,70.42
2022-09-12T04:28:32.939Z,58.65
2022-09-12T04:29:33.170Z,56.07
2022-09-12T04:30:33.565Z,58.65
2022-09-12T04:31:33.948Z,62.68
2022-09-12T04:32:34.088Z,59.30
2022-09-12T04:33:34.366Z,56.88
2022-09-12T04:34:34.642Z,55.43
2022-09-12T04:35:34.977Z,67.51
2022-09-12T04:36:35.362Z,61.23
2022-09-12T04:37:35.569Z,55.43
2022-09-12T04:38:35.784Z,60.26
2022-09-12T04:39:36.158Z,61.23
2022-09-12T04:40:36.403Z,58.17
2022-09-12T04:41:36.627Z,71.38
2022-09-12T04:42:36.853Z,56.07
2022-09-12T04:43:37.265Z,57.69
2022-09-12T04:44:37.525Z,58.81
2022-09-12T04:45:37.853Z,57.52
2022-09-12T04:46:38.119Z,63.00
2022-09-12T04:47:38.308Z,57.85
2022-09-12T04:48:38.593Z,69.45
2022-09-12T04:49:38.837Z,62.68
2022-09-12T04:50:39.989Z,63.00
2022-09-12T04:51:39.396Z,73.64
2022-09-12T04:52:39.679Z,60.75
2022-09-12T04:53:39.926Z,60.26
2022-09-12T04:54:40.153Z,64.78
2022-09-12T04:55:40.432Z,74.12
2022-09-12T04:56:40.736Z,73.80
2022-09-12T04:57:40.956Z,68.96
2022-09-12T04:58:41.192Z,75.41
2022-09-12T04:59:41.436Z,70.09
2022-09-12T05:00:41.686Z,69.61
2022-09-12T05:01:42.015Z,67.19
2022-09-12T05:02:42.263Z,78.47
2022-09-12T05:03:42.568Z,80.08
2022-09-12T05:04:42.779Z,80.73
2022-09-12T05:05:43.014Z,81.05
2022-09-12T05:06:43.355Z,73.48
2022-09-12T05:07:43.588Z,74.93
2022-09-12T05:08:43.913Z,70.42
2022-09-12T05:09:44.241Z,69.13
2022-09-12T05:10:44.434Z,64.61
2022-09-12T05:12:46.031Z,58.17
2022-09-12T05:13:45.297Z,65.42
2022-09-12T05:14:45.658Z,63.81
2022-09-12T05:15:45.857Z,60.75
2022-09-12T05:16:49.443Z,65.26
2022-09-12T05:17:46.438Z,62.84
2022-09-12T05:18:46.803Z,56.72
2022-09-12T05:19:46.928Z,69.29
2022-09-12T05:20:47.191Z,56.72
2022-09-12T05:21:47.481Z,56.72
2022-09-12T05:22:47.737Z,64.78
2022-09-12T05:23:48.040Z,59.62
2022-09-12T05:24:50.561Z,59.62
2022-09-12T05:25:48.542Z,63.16
2022-09-12T05:26:48.812Z,59.78
2022-09-12T05:27:50.623Z,60.26
2022-09-12T05:28:49.383Z,68.64
2022-09-12T05:29:49.705Z,72.19
2022-09-12T05:30:49.971Z,64.94
2022-09-12T05:31:50.247Z,61.23
2022-09-12T05:32:50.534Z,60.59
2022-09-12T05:33:50.772Z,61.23
2022-09-12T05:34:51.070Z,57.69
2022-09-12T05:35:51.340Z,66.87
2022-09-12T05:36:51.613Z,59.30
2022-09-12T05:37:51.885Z,73.15
2022-09-12T05:38:52.282Z,66.87
2022-09-12T05:39:52.509Z,64.13
2022-09-12T05:40:52.632Z,58.81
2022-09-12T05:41:52.942Z,59.30
2022-09-12T05:42:53.185Z,69.45
2022-09-12T05:43:53.457Z,57.69
2022-09-12T05:44:53.738Z,67.51
2022-09-12T05:45:54.058Z,62.68
2022-09-12T05:46:54.347Z,68.48
2022-09-12T05:47:54.586Z,64.45
2022-09-12T05:48:56.302Z,68.64
2022-09-12T05:49:55.131Z,73.64
2022-09-12T05:50:55.445Z,72.03
2022-09-12T05:51:55.725Z,64.29
2022-09-12T05:52:56.026Z,65.58
2022-09-12T05:53:56.295Z,64.13
2022-09-12T05:54:56.570Z,71.38
2022-09-12T05:55:56.913Z,62.68
2022-09-12T05:56:57.152Z,72.19
2022-09-12T05:57:57.430Z,58.49
2022-09-12T05:58:57.700Z,67.03
2022-09-12T05:59:58.043Z,60.42
2022-09-12T06:00:58.289Z,62.84
2022-09-12T06:01:58.576Z,63.81
2022-09-12T06:02:58.855Z,58.81
2022-09-12T06:03:59.073Z,72.35
2022-09-12T06:04:59.386Z,73.96
2022-09-12T06:05:59.649Z,60.59
2022-09-12T06:06:59.905Z,57.20
2022-09-12T06:08:00.170Z,61.39
2022-09-12T06:09:00.806Z,58.01
2022-09-12T06:10:00.794Z,65.10
2022-09-12T06:11:02.334Z,72.51
2022-09-12T06:12:01.372Z,59.62
2022-09-12T06:13:01.639Z,66.55
2022-09-12T06:14:01.875Z,54.46
2022-09-12T06:15:02.136Z,62.52
2022-09-12T06:16:02.403Z,65.26
2022-09-12T06:17:02.716Z,74.77
2022-09-12T06:18:03.200Z,62.52
2022-09-12T06:19:03.346Z,71.70
2022-09-12T06:20:03.593Z,64.29
2022-09-12T06:21:03.823Z,62.04
2022-09-12T06:22:04.089Z,67.84
2022-09-12T06:23:04.316Z,63.49
2022-09-12T06:24:04.615Z,61.39
2022-09-12T06:25:04.938Z,60.26
2022-09-12T06:26:05.120Z,72.19
2022-09-12T06:27:05.401Z,68.00
2022-09-12T06:28:05.673Z,60.26
2022-09-12T06:29:05.959Z,61.23
2022-09-12T06:30:06.221Z,62.20
2022-09-12T06:31:06.533Z,68.80
2022-09-12T06:32:06.803Z,60.42
2022-09-12T06:33:07.081Z,75.57
2022-09-12T06:34:07.310Z,61.23
2022-09-12T06:35:07.650Z,75.09
2022-09-12T06:36:12.033Z,56.24
2022-09-12T06:37:08.668Z,60.26
2022-09-12T06:38:08.769Z,68.32
2022-09-12T06:39:08.733Z,57.04
2022-09-12T06:40:09.099Z,62.20
2022-09-12T06:41:09.305Z,70.42
2022-09-12T06:42:09.542Z,66.39
2022-09-12T06:43:09.849Z,60.91
2022-09-12T06:44:10.151Z,68.48
2022-09-12T06:45:10.414Z,59.30
2022-09-12T06:46:10.806Z,59.62
2022-09-12T06:47:11.423Z,68.00
2022-09-12T06:48:11.301Z,60.75
2022-09-12T06:49:11.538Z,74.44
2022-09-12T06:50:11.793Z,60.59
2022-09-12T06:51:12.057Z,80.73
2022-09-12T06:52:12.375Z,64.78
2022-09-12T06:53:12.627Z,58.17
2022-09-12T06:54:12.925Z,67.84
2022-09-12T06:55:16.249Z,61.23
2022-09-12T06:56:14.460Z,64.61
2022-09-12T06:57:13.903Z,66.23
2022-09-12T06:58:14.045Z,58.65
2022-09-12T06:59:14.315Z,66.55
2022-09-12T07:00:14.591Z,68.96
2022-09-12T07:01:14.995Z,61.71
2022-09-12T07:02:15.308Z,59.14
2022-09-12T07:03:15.524Z,62.68
2022-09-12T07:04:15.798Z,58.65
2022-09-12T07:05:16.125Z,60.75
2022-09-12T07:06:16.423Z,65.58
2022-09-12T07:07:16.675Z,72.67
2022-09-12T07:08:16.958Z,65.42
2022-09-12T07:09:17.280Z,62.20
2022-09-12T07:10:22.083Z,60.59
2022-09-12T07:11:17.839Z,72.35
2022-09-12T07:12:18.181Z,69.61
2022-09-12T07:13:18.454Z,64.29
2022-09-12T07:14:18.733Z,61.39
2022-09-12T07:15:18.996Z,71.70
2022-09-12T07:16:20.111Z,58.17
2022-09-12T07:17:19.572Z,57.04
2022-09-12T07:18:19.858Z,55.59
2022-09-12T07:19:20.125Z,62.84
2022-09-12T07:20:20.423Z,59.94
2022-09-12T07:21:20.721Z,60.42
2022-09-12T07:22:21.007Z,55.27
2022-09-12T07:23:21.272Z,62.04
2022-09-12T07:24:21.547Z,54.46
2022-09-12T07:25:21.858Z,63.81
2022-09-12T07:26:22.122Z,61.39
2022-09-12T07:27:22.451Z,70.42
2022-09-12T07:28:22.803Z,74.44
2022-09-12T07:29:36.446Z,73.32
2022-09-12T07:30:24.355Z,81.69
2022-09-12T07:31:23.656Z,67.19
2022-09-12T07:32:23.872Z,65.58
2022-09-12T07:33:24.155Z,58.01
2022-09-12T07:34:24.431Z,70.09
2022-09-12T07:35:24.703Z,64.45
2022-09-12T07:36:25.021Z,65.90
2022-09-12T07:37:25.280Z,64.13
2022-09-12T07:38:25.556Z,76.05
2022-09-12T07:39:25.856Z,70.09
2022-09-12T07:40:26.243Z,65.42
2022-09-12T07:41:26.484Z,64.61
2022-09-12T07:42:26.786Z,72.67
2022-09-12T07:43:27.130Z,60.91
2022-09-12T07:44:27.413Z,68.16
2022-09-12T07:45:27.682Z,60.26
2022-09-12T07:46:27.943Z,65.10
2022-09-12T07:47:28.221Z,66.06
2022-09-12T07:48:28.626Z,65.58
2022-09-12T07:49:28.878Z,74.60
2022-09-12T07:50:29.139Z,61.71
2022-09-12T07:51:29.379Z,60.91
2022-09-12T07:52:29.627Z,69.93
2022-09-12T07:53:29.953Z,64.61
2022-09-12T07:54:30.227Z,54.62
2022-09-12T07:55:30.493Z,59.78
2022-09-12T07:56:34.617Z,55.75
2022-09-12T07:57:32.098Z,60.59
2022-09-12T07:58:31.267Z,68.48
2022-09-12T07:59:51.425Z,72.35
2022-09-12T08:00:32.858Z,63.49
2022-09-12T08:01:32.169Z,71.54
2022-09-12T08:02:32.456Z,56.56
2022-09-12T08:03:32.693Z,60.10
2022-09-12T08:04:33.063Z,60.59
2022-09-12T08:05:33.281Z,65.10
2022-09-12T08:06:33.542Z,67.03
2022-09-12T08:07:33.912Z,59.78
2022-09-12T08:08:34.154Z,70.25
2022-09-12T08:09:34.425Z,63.97
2022-09-12T08:10:34.730Z,60.91
2022-09-12T08:11:35.301Z,61.07
2022-09-12T08:12:35.318Z,72.03
2022-09-12T08:13:35.529Z,58.81
2022-09-12T08:14:35.739Z,70.74
2022-09-12T08:15:36.080Z,72.03
2022-09-12T08:16:36.392Z,70.09
2022-09-12T08:17:36.569Z,70.58
2022-09-12T08:18:36.883Z,70.09
2022-09-12T08:19:37.151Z,74.28
2022-09-12T08:20:37.435Z,72.83
2022-09-12T08:21:37.759Z,76.05
2022-09-12T08:22:37.997Z,73.64
2022-09-12T08:23:38.238Z,75.25
2022-09-12T08:24:38.540Z,69.29
2022-09-12T08:25:38.837Z,65.58
2022-09-12T08:26:39.121Z,65.26
2022-09-12T08:27:39.393Z,71.54
2022-09-12T08:28:40.017Z,81.21
2022-09-12T08:29:39.952Z,72.67
2022-09-12T08:30:40.309Z,71.38
2022-09-12T08:31:40.939Z,73.64
2022-09-12T08:32:40.814Z,69.93
2022-09-12T08:33:41.078Z,70.09
2022-09-12T08:34:41.487Z,70.42
2022-09-12T08:35:41.688Z,71.87
2022-09-12T08:36:41.979Z,69.29
2022-09-12T08:37:42.242Z,76.54
2022-09-12T08:38:42.639Z,71.06
2022-09-12T08:39:42.928Z,64.61
2022-09-12T08:40:43.135Z,70.74
2022-09-12T08:41:43.435Z,72.19
2022-09-12T08:42:43.744Z,70.58
2022-09-12T08:43:44.067Z,71.70
2022-09-12T08:44:44.301Z,68.00
2022-09-12T08:45:44.921Z,72.03
2022-09-12T08:46:44.837Z,67.51
2022-09-12T08:47:45.108Z,69.61
2022-09-12T08:48:45.375Z,65.10
2022-09-12T08:49:45.631Z,63.33
2022-09-12T08:50:49.865Z,57.52
2022-09-12T08:51:46.216Z,64.29
2022-09-12T08:52:46.591Z,63.16
2022-09-12T08:53:46.902Z,63.33
2022-09-12T08:54:47.025Z,73.64
2022-09-12T08:55:47.300Z,61.23
2022-09-12T08:56:47.657Z,56.40
2022-09-12T08:57:47.930Z,71.54
2022-09-12T08:58:48.167Z,60.59
2022-09-12T08:59:48.452Z,56.40
2022-09-12T09:00:48.704Z,62.04
2022-09-12T09:01:48.989Z,66.06
2022-09-12T09:02:49.459Z,61.23
2022-09-12T09:03:49.574Z,61.39
2022-09-12T09:04:49.897Z,68.16
2022-09-12T09:05:50.292Z,63.81
2022-09-12T09:06:50.502Z,56.24
2022-09-12T09:07:50.747Z,72.19
2022-09-12T09:08:51.066Z,62.68
2022-09-12T09:09:51.361Z,62.20
2022-09-12T09:10:51.604Z,66.55
2022-09-12T09:11:51.873Z,68.00
2022-09-12T09:12:52.135Z,61.23
2022-09-12T09:13:52.423Z,65.26
2022-09-12T09:14:52.766Z,68.00
2022-09-12T09:15:53.003Z,60.75
2022-09-12T09:16:53.244Z,65.90
2022-09-12T09:17:53.538Z,62.20
2022-09-12T09:18:53.806Z,64.61
2022-09-12T09:19:54.122Z,65.26
2022-09-12T09:20:54.508Z,61.55
2022-09-12T09:21:54.663Z,65.10
2022-09-12T09:22:54.963Z,60.91
2022-09-12T09:23:55.218Z,61.23
2022-09-12T09:24:55.657Z,63.81
2022-09-12T09:25:55.841Z,64.61
2022-09-12T09:26:56.085Z,60.75
2022-09-12T09:27:56.364Z,61.23
2022-09-12T09:28:56.655Z,61.71
2022-09-12T09:29:56.931Z,60.75
2022-09-12T09:30:57.578Z,62.84
2022-09-12T09:31:57.543Z,63.65
2022-09-12T09:32:57.966Z,68.96
2022-09-12T09:33:58.127Z,66.06
2022-09-12T09:34:58.404Z,67.51
2022-09-12T09:35:58.684Z,59.62
2022-09-12T09:36:58.977Z,60.42
2022-09-12T09:37:59.210Z,61.87
2022-09-12T09:38:59.528Z,63.16
2022-09-12T09:40:00.010Z,60.42
2022-09-12T09:41:00.045Z,61.71
2022-09-12T09:42:00.349Z,64.78
2022-09-12T09:43:00.590Z,60.91
2022-09-12T09:44:00.911Z,67.19
2022-09-12T09:45:01.181Z,63.33
2022-09-12T09:46:01.462Z,62.68
2022-09-12T09:47:01.758Z,60.91
2022-09-12T09:48:01.982Z,61.23
2022-09-12T09:49:02.276Z,64.94
2022-09-12T09:50:02.567Z,61.71
2022-09-12T09:51:02.846Z,64.61
2022-09-12T09:52:03.084Z,63.00
2022-09-12T09:53:03.398Z,61.23
2022-09-12T09:54:03.695Z,60.42
2022-09-12T09:55:03.952Z,64.45
2022-09-12T09:56:04.273Z,67.84
2022-09-12T09:57:04.487Z,62.04
2022-09-12T09:58:04.736Z,64.29
2022-09-12T09:59:05.026Z,61.71
2022-09-12T10:00:05.287Z,60.10
2022-09-12T10:01:05.708Z,61.23
2022-09-12T10:02:05.941Z,63.65
2022-09-12T10:03:08.278Z,64.94
2022-09-12T10:04:07.495Z,63.49
2022-09-12T10:05:06.765Z,64.29
2022-09-12T10:06:06.969Z,60.10
2022-09-12T10:07:07.429Z,59.94
2022-09-12T10:08:07.469Z,60.59
2022-09-12T10:09:07.754Z,63.33
2022-09-12T10:10:07.995Z,66.55
2022-09-12T10:11:08.237Z,66.39
2022-09-12T10:12:08.515Z,60.59
2022-09-12T10:13:08.781Z,62.84
2022-09-12T10:14:09.028Z,68.48
2022-09-12T10:15:09.296Z,72.67
2022-09-12T10:16:09.597Z,62.84
2022-09-12T10:17:09.838Z,63.65
2022-09-12T10:18:10.124Z,60.75
2022-09-12T10:19:10.395Z,61.23
2022-09-12T10:20:20.872Z,61.55
2022-09-12T10:21:11.827Z,69.93
2022-09-12T10:22:11.134Z,68.96
2022-09-12T10:23:11.462Z,62.84
2022-09-12T10:24:11.765Z,61.71
2022-09-12T10:25:11.995Z,63.33
2022-09-12T10:26:12.300Z,63.16
2022-09-12T10:27:12.551Z,59.78
2022-09-12T10:28:12.815Z,63.49
2022-09-12T10:29:13.088Z,61.87
2022-09-12T10:30:13.380Z,58.17
2022-09-12T10:31:13.771Z,58.17
2022-09-12T10:32:13.884Z,61.71
2022-09-12T10:33:14.127Z,61.71
2022-09-12T10:34:14.503Z,60.42
2022-09-12T10:35:14.732Z,59.94
2022-09-12T10:36:15.003Z,60.59
2022-09-12T10:37:15.329Z,64.94
2022-09-12T10:38:15.568Z,61.55
2022-09-12T10:39:15.827Z,62.52
2022-09-12T10:40:16.193Z,64.13
2022-09-12T10:41:16.409Z,61.23
2022-09-12T10:42:21.536Z,63.16
2022-09-12T10:43:17.902Z,64.61
2022-09-12T10:44:17.184Z,67.19
2022-09-12T10:45:17.545Z,61.39
2022-09-12T10:46:18.025Z,59.94
2022-09-12T10:47:18.170Z,60.26
2022-09-12T10:48:18.413Z,62.52
2022-09-12T10:49:18.672Z,61.55
2022-09-12T10:50:22.815Z,60.75
2022-09-12T10:51:19.254Z,60.26
2022-09-12T10:52:19.486Z,60.42
2022-09-12T10:53:19.767Z,63.65
2022-09-12T10:54:20.075Z,64.13
2022-09-12T10:55:20.306Z,70.09
2022-09-12T10:56:20.536Z,63.65
2022-09-12T10:57:20.869Z,60.26
2022-09-12T10:58:21.114Z,61.55
2022-09-12T10:59:21.373Z,62.20
2022-09-12T11:00:21.614Z,70.58
2022-09-12T11:01:21.900Z,62.68
2022-09-12T11:02:22.208Z,61.07
2022-09-12T11:03:22.418Z,62.20
2022-09-12T11:04:23.165Z,63.81
2022-09-12T11:05:23.018Z,63.16
2022-09-12T11:06:23.199Z,59.78
2022-09-12T11:07:23.999Z,59.14
2022-09-12T11:08:23.944Z,59.78
2022-09-12T11:09:24.138Z,60.59
2022-09-12T11:10:24.416Z,61.07
2022-09-12T11:11:24.827Z,61.39
2022-09-12T11:12:25.059Z,65.26
2022-09-12T11:13:25.324Z,62.68
2022-09-12T11:14:25.636Z,68.64
2022-09-12T11:15:25.896Z,63.97
2022-09-12T11:16:26.122Z,58.97
2022-09-12T11:17:26.941Z,61.23
2022-09-12T11:18:26.740Z,60.26
2022-09-12T11:19:27.032Z,61.71
2022-09-12T11:20:27.263Z,63.00
2022-09-12T11:21:27.630Z,64.78
2022-09-12T11:22:31.722Z,60.10
2022-09-12T11:23:28.143Z,62.84
2022-09-12T11:24:28.377Z,63.65
2022-09-12T11:25:28.622Z,63.49
2022-09-12T11:26:28.855Z,71.38
2022-09-12T11:27:29.131Z,65.90
2022-09-12T11:28:29.393Z,62.84
2022-09-12T11:29:29.714Z,63.97
2022-09-12T11:30:30.066Z,64.45
2022-09-12T11:31:30.311Z,64.13
2022-09-12T11:32:30.550Z,59.78
2022-09-12T11:33:30.774Z,61.71
2022-09-12T11:34:31.008Z,57.85
2022-09-12T11:35:31.242Z,63.81
2022-09-12T11:36:31.471Z,61.71
2022-09-12T11:37:31.729Z,61.39
2022-09-12T11:38:32.062Z,60.42
2022-09-12T11:39:32.242Z,61.23
2022-09-12T11:40:32.677Z,58.65
2022-09-12T11:41:32.985Z,61.55
2022-09-12T11:42:33.244Z,62.20
2022-09-12T11:43:33.439Z,58.81
2022-09-12T11:44:33.843Z,62.84
2022-09-12T11:45:34.083Z,68.32
2022-09-12T11:46:34.351Z,62.20
2022-09-12T11:47:34.595Z,58.01
2022-09-12T11:48:34.919Z,61.71
2022-09-12T11:49:35.859Z,61.55
2022-09-12T11:50:35.338Z,65.42
2022-09-12T11:51:35.580Z,61.07
2022-09-12T11:52:35.865Z,56.24
2022-09-12T11:53:36.194Z,54.14
2022-09-12T11:54:36.409Z,64.94
2022-09-12T11:55:36.663Z,59.14
2022-09-12T11:56:36.897Z,53.98
2022-09-12T11:57:37.163Z,53.33
2022-09-12T11:58:37.392Z,60.10
2022-09-12T11:59:37.920Z,57.69
2022-09-12T12:00:38.006Z,58.49
2022-09-12T12:01:42.911Z,55.27
2022-09-12T12:02:39.590Z,65.42
2022-09-12T12:03:38.835Z,58.81
2022-09-12T12:04:39.203Z,60.26
2022-09-12T12:05:39.745Z,60.75
2022-09-12T12:06:39.673Z,60.75
2022-09-12T12:07:43.403Z,64.45
2022-09-12T12:08:41.273Z,60.42
2022-09-12T12:09:40.435Z,66.39
2022-09-12T12:10:41.139Z,59.14
2022-09-12T12:11:41.106Z,69.13
2022-09-12T12:12:41.176Z,69.13
2022-09-12T12:13:41.461Z,61.23
2022-09-12T12:14:41.736Z,63.00
2022-09-12T12:15:42.033Z,66.06
2022-09-12T12:16:42.272Z,67.03
2022-09-12T12:17:42.606Z,64.13
2022-09-12T12:18:42.901Z,64.45
2022-09-12T12:19:43.128Z,64.29
2022-09-12T12:20:43.373Z,62.84
2022-09-12T12:21:43.600Z,63.49
2022-09-12T12:22:43.915Z,64.61
2022-09-12T12:23:44.123Z,60.75
2022-09-12T12:24:45.632Z,61.71
2022-09-12T12:25:44.791Z,63.00
2022-09-12T12:26:45.053Z,63.81
2022-09-12T12:27:45.298Z,61.71
2022-09-12T12:28:45.641Z,63.65
2022-09-12T12:29:45.980Z,61.71
2022-09-12T12:30:46.197Z,66.71
2022-09-12T12:31:46.411Z,68.00
2022-09-12T12:32:46.699Z,63.49
2022-09-12T12:33:47.421Z,60.91
2022-09-12T12:34:47.227Z,61.71
2022-09-12T12:35:47.455Z,63.97
2022-09-12T12:36:47.789Z,62.84
2022-09-12T12:37:48.148Z,65.26
2022-09-12T12:38:48.721Z,63.49
2022-09-12T12:39:48.732Z,65.10
2022-09-12T12:40:49.187Z,61.23
2022-09-12T12:41:49.258Z,60.10
2022-09-12T12:42:49.589Z,60.26
2022-09-12T12:43:49.819Z,62.84
2022-09-12T12:44:50.033Z,65.58
2022-09-12T12:45:50.342Z,63.65
2022-09-12T12:46:50.631Z,65.26
2022-09-12T12:47:50.837Z,66.55
2022-09-12T12:48:51.082Z,70.25
2022-09-12T12:49:51.365Z,71.54
2022-09-12T12:50:51.620Z,65.10
2022-09-12T12:51:51.929Z,72.19
2022-09-12T12:52:52.196Z,68.64
2022-09-12T12:53:52.442Z,63.81
2022-09-12T12:54:52.737Z,65.26
2022-09-12T12:55:52.985Z,65.74
2022-09-12T12:56:53.181Z,73.96